Flight Track Log - Related Links

Times and Time Zones

All times are in EDT time to prevent confusion due to time zone crossing. See the SKW5500 flight status page for this flight to view local times or setup timezone preferences in your user account.

Time Position Orientation Groundspeed Altitude Reporting Facility
EDT Latitude Longitude Course Direction KTS MPH feet Rate Location/Type
Sun 06:15:37 PM 39.2517 -106.8747 104° East 173 199 25,000  Level Denver Center
Sun 06:16:39 PM 39.2908 -106.9247 315° West 243 280 10,300 -6,048 Descending Denver Center
Sun 06:17:41 PM 39.3142 -107.0047 291° West 249 287 12,500 1,659 Climbing Denver Center
Sun 06:18:00 PM 39.4070 -106.7868 101° East  Level FlightAware Approximate
Sun 06:18:42 PM 39.3664 -106.9525 38° Northeast 293 337 13,700  Level Denver Center
Sun 06:19:00 PM 39.3876 -106.6609 101° East  Level FlightAware Approximate
Sun 06:19:44 PM 39.3650 -106.8344 91° East 336 387 15,300  Level Denver Center
Sun 06:20:00 PM 39.3639 -106.5363 104° East  Level FlightAware Approximate
Sun 06:20:46 PM 39.3603 -106.7022 93° East 364 419 16,800  Level Denver Center
Sun 06:22:00 PM 39.3536 -106.5033 92° East 396 456 19,100 1,985 Climbing Denver Center
Sun 06:23:02 PM 39.3586 -106.3469 88° East 409 471 21,300 1,742 Climbing Denver Center
Sun 06:24:04 PM 39.3653 -106.2053 86° East 413 475 22,700 823 Climbing Denver Center
Sun 06:25:06 PM 39.3722 -106.0467 87° East 426 490 23,000 -339 Climbing Denver Center
Sun 06:26:08 PM 39.3783 -105.8931 87° East 431 496 22,000 -1,210 Descending Denver Center
Sun 06:27:10 PM 39.3856 -105.7458 86° East 416 479 20,500 -1,463 Descending Denver Center
Sun 06:28:11 PM 39.3900 -105.6019 88° East 405 466 19,000 -1,317 Descending Denver Center
Sun 06:29:13 PM 39.3972 -105.4419 87° East 391 450 17,800 -1,306 Descending Denver Center
Sun 06:30:15 PM 39.4025 -105.3183 87° East 353 406 16,300 -1,403 Descending Denver Center
Sun 06:31:17 PM 39.4089 -105.1856 86° East 348 400 14,900 -1,306 Descending Denver Center
Sun 06:32:19 PM 39.4139 -105.0653 87° East 335 386 13,600 -1,065 Descending Denver Center
Sun 06:33:21 PM 39.4211 -104.9419 86° East 324 373 12,700 -1,024 Descending Denver Center
Sun 06:34:22 PM 39.4783 -104.8569 49° Northeast 308 354 11,500 -1,220 Descending Denver Center
Sun 06:35:24 PM 39.5403 -104.7722 47° Northeast 304 350 10,200 -1,113 Descending Denver Center
Sun 06:36:26 PM 39.5994 -104.6978 44° Northeast 299 344 9,200 -968 Descending Denver Center

Login

Don't have an account? Register now (free) for customized features, flight alerts, and more!